INFORMACIÓN METAR y TAF
METAR FOR LDZA
ADDS - METARS form results

(0720 UTC 15 April 2021)
Data provider http://aviationweather.gov/metar/data/
 
METAR text: LDZA 150700Z 25006KT 220V280 CAVOK 04/02 Q1024 NOSIG
Conditions at: LDZA (ZAGREB/PLESO , HR) observed 0700 UTC 15 April 2021
Temperature: 4.0°C (39°F)
Dewpoint: 2.0°C (36°F) [RH = 87%]
Pressure (altimeter): 30.24 inches Hg (1024.0 mb)
Winds: from the WSW (250 degrees) at 7 MPH (6 knots; 3.1 m/s)
Visibility: 6 or more miles (10+ km)
Ceiling: ceiling and visibility are OK
Clouds: unknown
Weather: no significant weather observed at this time

METAR text: LDZA 150630Z 25005KT 220V280 CAVOK 03/01 Q1024 NOSIG
Conditions at: LDZA (ZAGREB/PLESO , HR) observed 0630 UTC 15 April 2021
Temperature: 3.0°C (37°F)
Dewpoint: 1.0°C (34°F) [RH = 87%]
Pressure (altimeter): 30.24 inches Hg (1024.0 mb)
Winds: from the WSW (250 degrees) at 6 MPH (5 knots; 2.6 m/s)
Visibility: 6 or more miles (10+ km)
Ceiling: ceiling and visibility are OK
Clouds: unknown
Weather: no significant weather observed at this time

Forecast for: LDZA (ZAGREB/PLESO , HR)
Text: TAF LDZA 150525Z 1506/1606 VRB02KT CAVOK TX12/1515Z TN00/1506Z
Forecast period: 0600 UTC 15 April 2021 to 0600 UTC 16 April 2021
Forecast type: FROM: standard forecast or significant change
Winds: variable direction winds at 2 MPH (2 knots; 1.0 m/s)
Visibility: 6 or more miles (10+ km)
Ceiling: unknown
Clouds: missing
Weather: no significant weather forecast for this period
Text: PROB30
Forecast period: 1100 to 1400 UTC 15 April 2021
Forecast type: TEMPORARY: The following changes expected for less than half the time period
Visibility: missing
Ceiling: at least 12,000 feet AGL
Clouds: few clouds at 5000 feet AGL
Weather: no significant weather forecast for this period

 MAPA DE AEROPUERTO

 INFORMACIÓN DE PISTA
Pista 05 Longitud 10669 ft Ancho 148 ft
Elevación 353 ft Umbral desplazado 0 ft Rumbo de pista 47
Pista 23 Longitud 10669 ft Ancho 148 ft
Elevación 348 ft Umbral desplazado 0 ft Rumbo de pista 227

 FRECUANCIAS DEL AEROPUERTO
Tipo APP Nombre APP Frecuencia 120.7 MHZ
Tipo ATIS Nombre ATIS Frecuencia 124.375 MHZ
Tipo GND Nombre GND Frecuencia 121.85 MHZ
Tipo INFO Nombre INFO Frecuencia 124.85 MHZ
Tipo RDR Nombre RADAR Frecuencia 120.7 MHZ
Tipo TWR Nombre TWR Frecuencia 118.3 MHZ

 RADIO AYUDAS DEL AEROPUERTO
Tipo DME Nombre Iza Frecuencia 109500 KHZ
Tipo NDB Nombre Pisarovina Frecuencia 424 KHZ
Tipo NDB Nombre S.kKaljevec Frecuencia 350 KHZ
Tipo NDB Nombre Velika Gorica Frecuencia 325 KHZ
Tipo VOR-DME Nombre Zagreb Frecuencia 113700 KHZ
Tipo NDB Nombre Zagreb Frecuencia 367 KHZ



Powered by Virtual Airlines Manager [v2.6.2]